createdAt,value
2023-03-31T00:00:58.158Z,77.70
2023-03-31T00:03:28.021Z,1.00
2023-03-31T00:06:00.181Z,32.00
2023-03-31T00:08:30.862Z,46.70
2023-03-31T00:11:01.456Z,1.00
2023-03-31T00:13:30.355Z,1.00
2023-03-31T00:15:59.336Z,1.00
2023-03-31T00:18:29.853Z,1.00
2023-03-31T00:21:07.972Z,1.00
2023-03-31T00:23:36.144Z,22.20
2023-03-31T00:26:04.707Z,1.00
2023-03-31T00:28:33.017Z,1.00
2023-03-31T00:31:04.972Z,1.00
2023-03-31T00:33:34.526Z,1.00
2023-03-31T00:36:06.494Z,1.00
2023-03-31T00:38:35.450Z,23.60
2023-03-31T00:41:04.258Z,99.90
2023-03-31T00:43:34.287Z,78.60
2023-03-31T00:46:08.263Z,10.60
2023-03-31T00:48:39.279Z,1.00
2023-03-31T00:51:09.183Z,1.00
2023-03-31T00:53:38.698Z,1.00
2023-03-31T00:56:12.700Z,99.90
2023-03-31T00:58:43.976Z,99.90
2023-03-31T01:01:17.285Z,1.00
2023-03-31T01:03:47.513Z,1.00
2023-03-31T01:06:19.860Z,1.00
2023-03-31T01:08:50.130Z,88.10
2023-03-31T01:11:21.947Z,99.90
2023-03-31T01:13:52.712Z,99.90
2023-03-31T01:16:21.019Z,1.00
2023-03-31T01:18:51.273Z,99.90
2023-03-31T01:24:49.934Z,1.00
2023-03-31T01:27:38.375Z,1.00
2023-03-31T01:33:21.892Z,1.00
2023-03-31T01:36:25.101Z,1.00
2023-03-31T01:39:29.540Z,1.00
2023-03-31T01:42:06.423Z,1.00
2023-03-31T01:44:42.048Z,99.90
2023-03-31T01:47:18.403Z,1.00
2023-03-31T01:49:53.030Z,99.90
2023-03-31T01:52:25.857Z,99.90
2023-03-31T01:54:58.097Z,99.90
2023-03-31T01:57:32.985Z,99.90
2023-03-31T02:00:07.428Z,99.90
2023-03-31T02:02:39.726Z,1.00
2023-03-31T02:05:12.236Z,1.00
2023-03-31T02:07:44.625Z,1.00
2023-03-31T02:10:14.258Z,1.00
2023-03-31T02:12:45.425Z,1.00
2023-03-31T02:15:18.354Z,1.00
2023-03-31T02:17:51.023Z,1.00
2023-03-31T02:20:22.605Z,1.00
2023-03-31T02:22:55.036Z,99.90
2023-03-31T02:25:26.308Z,99.90
2023-03-31T02:28:00.704Z,1.00
2023-03-31T02:30:37.730Z,1.00
2023-03-31T02:35:36.873Z,99.90
2023-03-31T02:38:06.851Z,1.00
2023-03-31T02:40:35.035Z,1.00
2023-03-31T02:43:04.933Z,1.00
2023-03-31T02:45:42.046Z,1.00
2023-03-31T02:48:14.773Z,1.00
2023-03-31T02:51:11.920Z,1.00
2023-03-31T02:53:50.732Z,1.00
2023-03-31T02:56:36.126Z,1.00
2023-03-31T02:59:28.906Z,1.00
2023-03-31T03:02:11.544Z,99.90
2023-03-31T03:04:54.684Z,99.90
2023-03-31T03:07:29.245Z,99.90
2023-03-31T03:10:03.549Z,99.90
2023-03-31T03:12:42.172Z,99.90
2023-03-31T03:15:14.630Z,99.90
2023-03-31T03:17:44.974Z,7.30
2023-03-31T03:20:16.189Z,6.50
2023-03-31T03:22:44.772Z,1.00
2023-03-31T03:25:15.096Z,1.00
2023-03-31T03:27:43.231Z,1.00
2023-03-31T03:30:14.710Z,1.00
2023-03-31T03:32:43.255Z,1.00
2023-03-31T03:35:12.090Z,1.00
2023-03-31T03:37:40.449Z,1.00
2023-03-31T03:40:10.510Z,1.00
2023-03-31T03:42:39.250Z,1.00
2023-03-31T03:45:08.141Z,99.90
2023-03-31T03:47:37.882Z,99.90
2023-03-31T03:50:06.995Z,1.00
2023-03-31T03:52:35.141Z,1.00
2023-03-31T03:55:03.566Z,1.00
2023-03-31T04:00:00.177Z,73.70
2023-03-31T04:02:29.126Z,99.90
2023-03-31T04:04:58.800Z,99.90
2023-03-31T04:07:27.094Z,20.50
2023-03-31T04:09:55.256Z,97.80
2023-03-31T04:12:23.327Z,1.00
2023-03-31T04:14:51.425Z,1.00
2023-03-31T04:17:20.360Z,1.00
2023-03-31T04:19:52.335Z,1.00
2023-03-31T04:22:21.859Z,1.00
2023-03-31T04:24:52.863Z,99.90
2023-03-31T04:27:21.165Z,1.00
2023-03-31T04:32:23.344Z,1.00
2023-03-31T04:37:21.330Z,1.00
2023-03-31T04:39:50.782Z,1.00
2023-03-31T04:42:19.034Z,99.90
2023-03-31T04:44:47.156Z,99.90
2023-03-31T04:47:15.412Z,99.90
2023-03-31T04:49:43.552Z,99.90
2023-03-31T04:52:11.703Z,1.00
2023-03-31T05:02:07.628Z,99.90
2023-03-31T05:07:04.483Z,99.90
2023-03-31T05:09:34.646Z,99.90
2023-03-31T05:12:04.725Z,38.90
2023-03-31T05:14:32.918Z,99.90
2023-03-31T05:29:27.223Z,99.90
2023-03-31T05:31:56.050Z,1.00
2023-03-31T05:34:24.185Z,99.90
2023-03-31T05:36:53.998Z,99.90
2023-03-31T05:39:22.613Z,99.90
2023-03-31T05:41:50.856Z,99.90
2023-03-31T05:44:20.766Z,99.90
2023-03-31T05:46:50.478Z,99.90
2023-03-31T05:49:18.740Z,99.90
2023-03-31T05:51:47.838Z,89.70
2023-03-31T05:54:16.042Z,99.30
2023-03-31T05:56:44.256Z,96.70
2023-03-31T05:59:12.418Z,39.70
2023-03-31T06:01:40.660Z,1.00
2023-03-31T06:04:10.284Z,1.00
2023-03-31T06:06:38.451Z,99.90
2023-03-31T06:09:07.016Z,99.90
2023-03-31T06:11:35.435Z,99.90
2023-03-31T06:14:03.614Z,99.90
2023-03-31T06:16:31.853Z,67.70
2023-03-31T06:18:59.987Z,1.00
2023-03-31T06:21:29.676Z,99.90
2023-03-31T06:23:58.398Z,99.90
2023-03-31T06:26:26.542Z,1.00
2023-03-31T06:28:55.173Z,99.90
2023-03-31T06:31:25.112Z,99.90
2023-03-31T06:33:54.030Z,99.90
2023-03-31T06:36:23.461Z,1.00
2023-03-31T06:41:22.603Z,1.00
2023-03-31T06:43:51.009Z,99.90
2023-03-31T06:46:19.662Z,1.00
2023-03-31T06:48:47.893Z,99.90
2023-03-31T06:51:16.377Z,99.90
2023-03-31T06:53:44.527Z,25.00
2023-03-31T06:58:42.646Z,1.00
2023-03-31T07:01:11.788Z,99.90
2023-03-31T07:03:40.438Z,99.90
2023-03-31T07:06:08.937Z,1.00
2023-03-31T07:08:37.291Z,8.70
2023-03-31T07:13:38.383Z,1.00
2023-03-31T07:28:41.056Z,1.00
2023-03-31T07:31:13.198Z,99.90
2023-03-31T07:33:41.669Z,99.90
2023-03-31T07:36:13.253Z,99.90
2023-03-31T07:38:42.385Z,99.90
2023-03-31T07:41:12.332Z,99.90
2023-03-31T07:43:42.129Z,99.90
2023-03-31T07:46:16.633Z,99.90
2023-03-31T07:48:46.409Z,99.90
2023-03-31T07:51:15.100Z,99.90
2023-03-31T07:53:43.265Z,99.90
2023-03-31T07:56:11.405Z,99.90
2023-03-31T07:58:40.929Z,99.90
2023-03-31T08:01:09.383Z,99.90
2023-03-31T08:03:37.771Z,99.90
2023-03-31T08:06:06.536Z,99.90
2023-03-31T08:08:34.824Z,99.90
2023-03-31T08:16:05.666Z,1.00
2023-03-31T08:18:36.475Z,1.00
2023-03-31T08:21:04.684Z,52.70
2023-03-31T08:23:33.178Z,54.70
2023-03-31T08:26:10.570Z,26.30
2023-03-31T08:28:38.728Z,14.70
2023-03-31T08:31:10.399Z,22.00
2023-03-31T08:33:38.868Z,1.00
2023-03-31T08:36:10.810Z,1.00
2023-03-31T08:38:41.726Z,1.00
2023-03-31T08:41:23.781Z,1.00
2023-03-31T08:43:54.372Z,1.00
2023-03-31T08:46:24.665Z,99.90
2023-03-31T08:48:56.359Z,99.90
2023-03-31T08:51:29.342Z,99.90
2023-03-31T08:54:03.631Z,99.90
2023-03-31T08:56:37.947Z,99.90
2023-03-31T08:59:07.005Z,99.90
2023-03-31T09:01:54.515Z,99.90
2023-03-31T09:04:39.294Z,87.70
2023-03-31T09:07:15.143Z,79.60
2023-03-31T09:09:51.350Z,99.90
2023-03-31T09:12:23.293Z,29.00
2023-03-31T09:14:55.677Z,23.40
2023-03-31T09:17:28.509Z,41.60
2023-03-31T09:19:59.825Z,16.20
2023-03-31T09:22:32.594Z,39.80
2023-03-31T09:25:06.668Z,28.80
2023-03-31T09:27:37.441Z,42.50
2023-03-31T09:30:11.643Z,54.00
2023-03-31T09:32:41.462Z,25.80
2023-03-31T09:35:18.184Z,39.20
2023-03-31T09:37:46.594Z,53.70
2023-03-31T09:40:18.875Z,52.70
2023-03-31T09:42:48.624Z,42.00
2023-03-31T09:45:18.546Z,50.40
2023-03-31T09:47:52.872Z,36.40
2023-03-31T09:50:25.228Z,50.10
2023-03-31T09:52:56.400Z,39.20
2023-03-31T09:55:39.005Z,27.00
2023-03-31T09:58:08.875Z,31.30
2023-03-31T10:00:37.831Z,3.60
2023-03-31T10:03:08.523Z,11.00
2023-03-31T10:05:40.150Z,1.00
2023-03-31T10:08:30.750Z,1.00
2023-03-31T10:11:08.893Z,1.00
2023-03-31T10:13:46.584Z,1.00
2023-03-31T10:16:16.539Z,1.00
2023-03-31T10:18:46.062Z,1.00
2023-03-31T10:21:25.978Z,1.00
2023-03-31T10:23:56.274Z,1.00
2023-03-31T10:26:27.931Z,1.00
2023-03-31T10:28:56.435Z,1.00
2023-03-31T10:31:28.834Z,1.00
2023-03-31T10:33:59.675Z,1.00
2023-03-31T10:36:31.862Z,1.00
2023-03-31T10:39:00.397Z,1.00
2023-03-31T10:41:30.887Z,1.00
2023-03-31T10:44:00.519Z,1.00
2023-03-31T10:46:42.779Z,1.00
2023-03-31T10:49:26.904Z,1.00
2023-03-31T10:51:56.200Z,1.00
2023-03-31T10:54:24.512Z,1.00
2023-03-31T10:56:54.431Z,1.00
2023-03-31T10:59:38.068Z,1.00
2023-03-31T11:02:46.717Z,1.00
2023-03-31T11:05:25.453Z,1.00
2023-03-31T11:08:06.500Z,1.00
2023-03-31T11:10:45.902Z,1.00
2023-03-31T11:13:20.943Z,1.00
2023-03-31T11:15:55.585Z,1.00
2023-03-31T11:18:48.942Z,1.00
2023-03-31T11:21:25.381Z,1.00
2023-03-31T11:24:04.957Z,1.00
2023-03-31T11:26:45.027Z,1.00
2023-03-31T11:29:31.136Z,1.00
2023-03-31T11:32:17.670Z,1.00
2023-03-31T11:35:07.993Z,1.00
2023-03-31T11:37:50.706Z,1.00
2023-03-31T11:40:40.959Z,1.00
2023-03-31T11:43:14.080Z,1.00
2023-03-31T11:45:48.235Z,1.00
2023-03-31T11:48:22.277Z,1.00
2023-03-31T11:50:52.219Z,1.00
2023-03-31T11:53:26.657Z,1.00
2023-03-31T11:55:57.828Z,1.00
2023-03-31T11:58:31.154Z,1.00
2023-03-31T12:01:06.153Z,1.00
2023-03-31T12:03:44.234Z,1.00
2023-03-31T12:06:19.035Z,1.00
2023-03-31T12:08:58.814Z,1.00
2023-03-31T12:11:34.192Z,1.00
2023-03-31T12:14:09.886Z,1.00
2023-03-31T12:16:43.884Z,1.00
2023-03-31T12:19:18.343Z,1.00
2023-03-31T12:21:51.563Z,1.00
2023-03-31T12:24:21.223Z,1.00
2023-03-31T12:27:02.208Z,1.00
2023-03-31T12:29:35.087Z,1.00
2023-03-31T12:32:08.678Z,1.00
2023-03-31T12:34:43.753Z,1.00
2023-03-31T12:37:56.822Z,4.30
2023-03-31T12:40:37.652Z,31.20
2023-03-31T12:43:24.022Z,99.90
2023-03-31T12:45:59.241Z,99.90
2023-03-31T12:48:51.819Z,99.90
2023-03-31T12:51:41.097Z,99.90
2023-03-31T12:54:22.756Z,99.90
2023-03-31T12:57:14.782Z,99.90
2023-03-31T12:59:44.121Z,99.90
2023-03-31T13:02:27.140Z,99.90
2023-03-31T13:04:55.510Z,99.90
2023-03-31T13:07:43.400Z,99.90
2023-03-31T13:10:30.219Z,97.90
2023-03-31T13:13:04.653Z,30.00
2023-03-31T13:15:34.105Z,32.60
2023-03-31T13:18:04.259Z,12.40
2023-03-31T13:20:36.014Z,1.00
2023-03-31T13:23:07.066Z,1.00
2023-03-31T13:25:44.093Z,1.00
2023-03-31T13:28:43.957Z,1.00
2023-03-31T13:31:13.034Z,1.00
2023-03-31T13:33:57.199Z,1.00
2023-03-31T13:36:53.593Z,1.00
2023-03-31T13:39:55.829Z,1.00
2023-03-31T13:43:00.868Z,1.00
2023-03-31T13:45:48.196Z,1.00
2023-03-31T13:48:29.087Z,1.00
2023-03-31T13:51:33.504Z,1.00
2023-03-31T13:54:45.746Z,1.00
2023-03-31T13:57:48.276Z,1.00
2023-03-31T14:00:28.196Z,1.00
2023-03-31T14:03:19.386Z,1.00
2023-03-31T14:05:51.270Z,1.00
2023-03-31T14:08:28.255Z,1.00
2023-03-31T14:11:16.217Z,1.00
2023-03-31T14:13:44.433Z,1.00
2023-03-31T14:16:15.927Z,1.00
2023-03-31T14:18:55.365Z,1.00
2023-03-31T14:21:31.006Z,1.00
2023-03-31T14:24:06.572Z,1.00
2023-03-31T14:26:49.045Z,1.00
2023-03-31T14:29:21.928Z,1.00
2023-03-31T14:31:58.446Z,1.00
2023-03-31T14:34:42.993Z,1.00
2023-03-31T14:37:16.203Z,1.00
2023-03-31T14:39:47.147Z,1.00
2023-03-31T14:42:17.792Z,1.00
2023-03-31T14:44:48.530Z,1.00
2023-03-31T14:47:21.430Z,1.00
2023-03-31T14:50:01.220Z,1.00
2023-03-31T14:52:32.077Z,1.00
2023-03-31T14:55:01.379Z,1.00
2023-03-31T14:57:32.630Z,1.00
2023-03-31T15:00:05.020Z,1.00
2023-03-31T15:02:35.601Z,1.00
2023-03-31T15:05:09.832Z,1.00
2023-03-31T15:07:38.566Z,1.00
2023-03-31T15:10:08.577Z,1.00
2023-03-31T15:12:38.797Z,1.00
2023-03-31T15:15:08.743Z,1.00
2023-03-31T15:17:41.393Z,1.00
2023-03-31T15:20:29.050Z,1.00
2023-03-31T15:22:58.551Z,1.00
2023-03-31T15:25:30.625Z,1.00
2023-03-31T15:28:03.088Z,1.00
2023-03-31T15:30:31.852Z,1.00
2023-03-31T15:35:50.927Z,1.00
2023-03-31T15:38:19.701Z,1.00
2023-03-31T15:40:52.993Z,1.00
2023-03-31T15:43:30.215Z,1.00
2023-03-31T15:45:59.646Z,1.00
2023-03-31T15:48:33.371Z,1.00
2023-03-31T15:51:06.661Z,1.00
2023-03-31T15:53:38.971Z,1.00
2023-03-31T15:56:07.740Z,1.00
2023-03-31T15:58:55.202Z,1.00
2023-03-31T16:01:24.506Z,1.00
2023-03-31T16:03:56.522Z,1.00
2023-03-31T16:06:34.805Z,1.00
2023-03-31T16:09:06.047Z,1.00
2023-03-31T16:11:39.321Z,1.00
2023-03-31T16:14:12.256Z,1.00
2023-03-31T16:16:46.566Z,1.00
2023-03-31T16:19:15.164Z,1.00
2023-03-31T16:21:50.187Z,5.30
2023-03-31T16:24:18.555Z,23.70
2023-03-31T16:26:46.808Z,48.10
2023-03-31T16:29:22.453Z,89.10
2023-03-31T16:31:50.989Z,99.90
2023-03-31T16:34:19.236Z,99.90
2023-03-31T16:36:49.423Z,99.90
2023-03-31T16:39:17.606Z,99.90
2023-03-31T16:41:47.826Z,99.90
2023-03-31T16:44:15.999Z,99.90
2023-03-31T16:46:44.178Z,1.00
2023-03-31T16:49:12.375Z,1.00
2023-03-31T16:51:40.748Z,1.00
2023-03-31T16:54:10.543Z,1.00
2023-03-31T16:56:38.707Z,1.00
2023-03-31T16:59:08.255Z,1.00
2023-03-31T17:01:36.580Z,1.00
2023-03-31T17:04:04.890Z,96.10
2023-03-31T17:06:33.242Z,99.90
2023-03-31T17:09:01.730Z,99.90
2023-03-31T17:14:19.866Z,99.90
2023-03-31T17:16:48.899Z,99.90
2023-03-31T17:19:18.112Z,99.90
2023-03-31T17:21:46.204Z,99.90
2023-03-31T17:24:14.617Z,99.90
2023-03-31T17:26:44.099Z,95.60
2023-03-31T17:29:14.575Z,99.90
2023-03-31T17:31:43.625Z,99.90
2023-03-31T17:34:11.867Z,99.90
2023-03-31T17:36:41.991Z,1.00
2023-03-31T17:39:10.228Z,1.00
2023-03-31T17:41:38.729Z,14.90
2023-03-31T17:44:08.851Z,11.30
2023-03-31T17:46:37.048Z,85.20
2023-03-31T17:49:05.593Z,1.00
2023-03-31T17:51:35.048Z,1.00
2023-03-31T17:54:03.983Z,1.00
2023-03-31T17:56:32.151Z,1.00
2023-03-31T17:59:00.668Z,99.90
2023-03-31T18:01:30.332Z,99.90
2023-03-31T18:03:59.458Z,99.90
2023-03-31T18:06:27.828Z,1.00
2023-03-31T18:08:57.815Z,1.00
2023-03-31T18:11:26.037Z,1.00
2023-03-31T18:13:54.261Z,1.00
2023-03-31T18:16:22.457Z,65.40
2023-03-31T18:18:52.052Z,99.90
2023-03-31T18:21:20.392Z,1.00
2023-03-31T18:23:52.635Z,33.30
2023-03-31T18:26:21.899Z,73.10
2023-03-31T18:28:50.140Z,99.90
2023-03-31T18:31:18.891Z,1.00
2023-03-31T18:33:47.002Z,1.00
2023-03-31T18:36:18.806Z,1.00
2023-03-31T18:38:47.484Z,1.00
2023-03-31T18:41:15.876Z,99.90
2023-03-31T18:43:44.692Z,99.90
2023-03-31T18:46:12.932Z,99.90
2023-03-31T18:48:42.026Z,99.90
2023-03-31T18:51:10.271Z,99.90
2023-03-31T18:53:39.751Z,99.90
2023-03-31T18:56:07.964Z,99.90
2023-03-31T18:58:37.368Z,99.90
2023-03-31T19:01:05.795Z,99.90
2023-03-31T19:03:33.990Z,99.90
2023-03-31T19:06:04.708Z,99.90
2023-03-31T19:08:33.212Z,99.90
2023-03-31T19:11:07.551Z,99.90
2023-03-31T19:13:36.019Z,56.30
2023-03-31T19:16:04.353Z,1.00
2023-03-31T19:18:32.922Z,1.00
2023-03-31T19:21:03.739Z,99.90
2023-03-31T19:23:32.791Z,99.90
2023-03-31T19:26:02.596Z,99.90
2023-03-31T19:28:32.472Z,99.90
2023-03-31T19:31:03.481Z,99.90
2023-03-31T19:33:31.765Z,99.90
2023-03-31T19:36:00.294Z,99.90
2023-03-31T19:38:32.072Z,17.60
2023-03-31T19:41:00.453Z,1.30
2023-03-31T19:43:30.288Z,99.90
2023-03-31T19:46:03.398Z,99.90
2023-03-31T19:48:33.998Z,99.90
2023-03-31T19:51:05.939Z,99.90
2023-03-31T19:53:34.150Z,1.00
2023-03-31T19:56:05.074Z,1.00
2023-03-31T19:58:35.899Z,99.90
2023-03-31T20:01:07.566Z,1.00
2023-03-31T20:03:36.366Z,1.00
2023-03-31T20:06:07.141Z,14.00
2023-03-31T20:08:43.060Z,34.10
2023-03-31T20:11:13.524Z,99.90
2023-03-31T20:13:43.176Z,99.90
2023-03-31T20:16:14.438Z,1.00
2023-03-31T20:18:47.929Z,1.00
2023-03-31T20:21:18.219Z,1.00
2023-03-31T20:23:47.919Z,1.00
2023-03-31T20:26:19.256Z,1.00
2023-03-31T20:28:47.848Z,99.90
2023-03-31T20:31:20.223Z,1.00
2023-03-31T20:33:49.311Z,1.00
2023-03-31T20:36:19.248Z,1.00
2023-03-31T20:38:51.188Z,99.90
2023-03-31T20:41:20.791Z,1.00
2023-03-31T20:43:50.541Z,91.60
2023-03-31T20:46:20.294Z,1.00
2023-03-31T20:48:51.064Z,1.00
2023-03-31T20:51:21.942Z,1.00
2023-03-31T20:53:52.823Z,99.90
2023-03-31T20:56:23.243Z,1.00
2023-03-31T20:58:53.642Z,1.00
2023-03-31T21:01:23.701Z,1.00
2023-03-31T21:03:51.980Z,60.80
2023-03-31T21:06:20.700Z,1.00
2023-03-31T21:08:53.462Z,1.00
2023-03-31T21:11:22.642Z,99.90
2023-03-31T21:13:51.040Z,99.90
2023-03-31T21:16:19.295Z,99.90
2023-03-31T21:18:48.931Z,99.90
2023-03-31T21:21:19.340Z,99.90
2023-03-31T21:23:49.657Z,1.00
2023-03-31T21:26:18.301Z,1.00
2023-03-31T21:28:46.826Z,1.00
2023-03-31T21:31:17.134Z,99.90
2023-03-31T21:33:47.147Z,1.00
2023-03-31T21:36:18.350Z,32.20
2023-03-31T21:38:46.987Z,99.90
2023-03-31T21:41:17.373Z,99.90
2023-03-31T21:43:46.274Z,99.90
2023-03-31T21:46:17.412Z,99.90
2023-03-31T21:48:45.664Z,99.90
2023-03-31T21:51:13.757Z,1.00
2023-03-31T21:53:44.359Z,1.00
2023-03-31T21:56:12.444Z,1.00
2023-03-31T21:58:40.630Z,1.00
2023-03-31T22:01:09.384Z,1.00
2023-03-31T22:03:38.719Z,1.00
2023-03-31T22:06:08.310Z,1.00
2023-03-31T22:08:37.956Z,1.00
2023-03-31T22:11:09.113Z,1.00
2023-03-31T22:13:37.629Z,1.00
2023-03-31T22:16:06.538Z,1.00
2023-03-31T22:18:34.727Z,1.00
2023-03-31T22:21:03.496Z,99.90
2023-03-31T22:23:32.724Z,99.90
2023-03-31T22:26:00.977Z,99.90
2023-03-31T22:28:30.525Z,99.90
2023-03-31T22:30:58.621Z,99.90
2023-03-31T22:33:26.719Z,1.00
2023-03-31T22:35:54.869Z,99.90
2023-03-31T22:38:23.002Z,99.90
2023-03-31T22:40:51.130Z,1.00
2023-03-31T22:43:19.388Z,1.00
2023-03-31T22:45:48.914Z,1.00
2023-03-31T22:48:18.308Z,1.00
2023-03-31T22:50:46.885Z,1.00
2023-03-31T22:53:15.088Z,1.00
2023-03-31T22:55:44.116Z,1.00
2023-03-31T22:58:22.919Z,1.00
2023-03-31T23:00:57.732Z,75.10
2023-03-31T23:03:26.357Z,67.90
2023-03-31T23:05:54.628Z,45.70
2023-03-31T23:08:22.917Z,95.00
2023-03-31T23:10:57.923Z,68.50
2023-03-31T23:13:27.936Z,61.20
2023-03-31T23:15:57.775Z,99.90
2023-03-31T23:18:25.928Z,36.30
2023-03-31T23:20:54.083Z,36.20
2023-03-31T23:23:22.184Z,90.70
2023-03-31T23:25:50.389Z,99.90
2023-03-31T23:28:18.589Z,80.50
2023-03-31T23:30:54.009Z,99.90
2023-03-31T23:33:23.755Z,99.90
2023-03-31T23:35:52.630Z,99.90
2023-03-31T23:38:21.387Z,99.90
2023-03-31T23:40:49.596Z,99.90
2023-03-31T23:43:18.250Z,99.90
2023-03-31T23:45:46.445Z,99.90
2023-03-31T23:48:14.625Z,99.90
2023-03-31T23:50:44.162Z,99.90
2023-03-31T23:53:13.018Z,99.90
2023-03-31T23:55:41.571Z,99.90
2023-03-31T23:58:09.823Z,99.90
